createdAt,value
2023-02-05T00:04:19.904Z,0
2023-02-05T00:09:21.615Z,0
2023-02-05T00:14:23.401Z,0
2023-02-05T00:19:25.145Z,290.06742
2023-02-05T00:24:26.846Z,259.89744
2023-02-05T00:29:28.550Z,255.11111
2023-02-05T00:34:30.218Z,255.11111
2023-02-05T00:39:31.805Z,241.58454
2023-02-05T00:44:33.515Z,244.4878
2023-02-05T00:49:35.318Z,151.40741
2023-02-05T00:54:36.972Z,209.51724
2023-02-05T00:59:38.545Z,225.27854
2023-02-05T01:04:40.987Z,245.96078
2023-02-05T01:09:42.709Z,264.83333
2023-02-05T01:14:44.532Z,253.54774
2023-02-05T01:19:46.206Z,235.94313
2023-02-05T01:24:47.875Z,231.85047
2023-02-05T01:29:49.660Z,214.17544
2023-02-05T01:34:51.304Z,187.47826
2023-02-05T01:39:53.004Z,214.17544
2023-02-05T01:44:54.691Z,234.56604
2023-02-05T01:49:56.386Z,220.23318
2023-02-05T01:55:00.154Z,250.46766
2023-02-05T02:00:03.867Z,259.89744
2023-02-05T02:05:07.757Z,258.28571
2023-02-05T02:10:11.680Z,243.02913
2023-02-05T02:15:13.393Z,238.73684
2023-02-05T02:20:15.032Z,235.94313
2023-02-05T02:25:16.687Z,226.56881
2023-02-05T02:30:18.523Z,227.87097
2023-02-05T02:35:20.218Z,229.18519
2023-02-05T02:40:21.844Z,227.87097
2023-02-05T02:45:23.648Z,230.51163
2023-02-05T02:50:25.290Z,229.18519
2023-02-05T02:55:26.984Z,222.73303
2023-02-05T03:00:28.740Z,215.36564
2023-02-05T03:05:30.406Z,216.56637
2023-02-05T03:10:32.274Z,225.27854
2023-02-05T03:15:34.369Z,230.51163
2023-02-05T03:20:36.162Z,222.73303
2023-02-05T03:25:38.340Z,215.36564
2023-02-05T03:30:40.133Z,216.56637
2023-02-05T03:35:41.756Z,233.20188
2023-02-05T03:40:43.474Z,231.85047
2023-02-05T03:45:45.183Z,225.27854
2023-02-05T03:50:46.851Z,219
2023-02-05T03:55:48.446Z,217.77778
2023-02-05T04:00:50.313Z,210.66667
2023-02-05T04:05:52.109Z,212.99563
2023-02-05T04:10:53.746Z,214.17544
2023-02-05T04:15:55.471Z,217.77778
2023-02-05T04:20:57.102Z,227.87097
2023-02-05T04:25:58.744Z,231.85047
2023-02-05T04:31:00.684Z,222.73303
2023-02-05T04:36:02.303Z,217.77778
2023-02-05T04:41:04.000Z,216.56637
2023-02-05T04:46:05.797Z,224
2023-02-05T04:51:07.410Z,233.20188
2023-02-05T04:56:09.044Z,231.85047
2023-02-05T05:01:10.915Z,229.18519
2023-02-05T05:06:12.569Z,238.73684
2023-02-05T05:11:14.206Z,225.27854
2023-02-05T05:16:15.939Z,222.73303
2023-02-05T05:21:17.562Z,221.47748
2023-02-05T05:26:19.149Z,225.27854
2023-02-05T05:31:20.769Z,229.18519
2023-02-05T05:36:22.413Z,241.58454
2023-02-05T05:41:24.057Z,241.58454
2023-02-05T05:46:25.787Z,238.73684
2023-02-05T05:51:27.448Z,237.33333
2023-02-05T05:56:29.061Z,230.51163
2023-02-05T06:01:30.707Z,226.56881
2023-02-05T06:06:32.295Z,225.27854
2023-02-05T06:11:33.946Z,234.56604
2023-02-05T06:16:35.843Z,229.18519
2023-02-05T06:21:37.498Z,245.96078
2023-02-05T06:26:39.101Z,248.9505
2023-02-05T06:31:40.752Z,252
2023-02-05T06:36:42.419Z,258.28571
2023-02-05T06:41:44.005Z,282.46154
2023-02-05T06:46:45.806Z,271.65957
2023-02-05T06:51:47.375Z,273.41176
2023-02-05T06:56:48.951Z,250.46766
2023-02-05T07:01:50.659Z,250.46766
2023-02-05T07:06:52.339Z,256.69036
2023-02-05T07:11:54.157Z,250.46766
2023-02-05T07:16:55.790Z,241.58454
2023-02-05T07:21:57.489Z,245.96078
2023-02-05T07:26:59.263Z,238.73684
2023-02-05T07:32:01.104Z,237.33333
2023-02-05T07:37:02.732Z,238.73684
2023-02-05T07:42:04.376Z,240.15385
2023-02-05T07:47:06.012Z,243.02913
2023-02-05T07:52:07.673Z,245.96078
2023-02-05T07:57:09.356Z,241.58454
2023-02-05T08:02:11.103Z,237.33333
2023-02-05T08:07:12.816Z,238.73684
2023-02-05T08:12:14.501Z,259.89744
2023-02-05T08:17:16.287Z,266.51309
2023-02-05T08:22:17.925Z,238.73684
2023-02-05T08:27:19.560Z,284.33149
2023-02-05T08:32:21.329Z,278.78261
2023-02-05T08:37:22.927Z,278.78261
2023-02-05T08:42:24.645Z,294
2023-02-05T08:47:26.307Z,278.78261
2023-02-05T08:52:28.091Z,275.1828
2023-02-05T08:57:29.744Z,288.13408
2023-02-05T09:02:32.247Z,296
2023-02-05T09:07:33.975Z,300.06936
2023-02-05T09:12:35.661Z,300.06936
2023-02-05T09:17:37.292Z,302.13953
2023-02-05T09:22:39.272Z,304.23392
2023-02-05T09:27:41.171Z,292.0226
2023-02-05T09:32:42.883Z,296
2023-02-05T09:37:44.576Z,302.13953
2023-02-05T09:42:46.229Z,310.66667
2023-02-05T09:47:47.898Z,278.78261
2023-02-05T09:52:49.580Z,282.46154
2023-02-05T09:57:51.255Z,278.78261
2023-02-05T10:02:52.889Z,271.65957
2023-02-05T10:07:54.538Z,263.17098
2023-02-05T10:12:56.210Z,258.28571
2023-02-05T10:17:57.921Z,264.83333
2023-02-05T10:22:59.773Z,280.61202
2023-02-05T10:28:01.451Z,288.13408
2023-02-05T10:33:03.120Z,282.46154
2023-02-05T10:38:05.946Z,304.23392
2023-02-05T10:43:07.723Z,290.06742
2023-02-05T10:48:09.396Z,282.46154
2023-02-05T10:53:11.080Z,296
2023-02-05T10:58:12.712Z,290.06742
2023-02-05T11:03:14.350Z,294
2023-02-05T11:08:16.000Z,290.06742
2023-02-05T11:13:17.686Z,286.22222
2023-02-05T11:18:19.363Z,286.22222
2023-02-05T11:23:21.021Z,271.65957
2023-02-05T11:28:22.649Z,258.28571
2023-02-05T11:33:24.679Z,256.69036
2023-02-05T11:38:26.320Z,259.89744
2023-02-05T11:43:27.965Z,255.11111
2023-02-05T11:48:29.536Z,259.89744
2023-02-05T11:53:31.197Z,290.06742
2023-02-05T11:58:37.087Z,275.1828
2023-02-05T12:03:39.282Z,263.17098
2023-02-05T12:08:40.957Z,269.92593
2023-02-05T12:13:44.719Z,261.52577
2023-02-05T12:18:47.566Z,275.1828
2023-02-05T12:23:49.288Z,280.61202
2023-02-05T12:28:50.954Z,268.21053
2023-02-05T12:33:52.606Z,266.51309
2023-02-05T12:38:54.249Z,259.89744
2023-02-05T12:43:55.981Z,268.21053
2023-02-05T12:48:57.682Z,268.21053
2023-02-05T12:53:59.318Z,273.41176
2023-02-05T12:59:01.253Z,264.83333
2023-02-05T13:04:02.910Z,255.11111
2023-02-05T13:09:04.514Z,253.54774
2023-02-05T13:14:06.396Z,250.46766
2023-02-05T13:19:08.203Z,250.46766
2023-02-05T13:24:09.897Z,253.54774
2023-02-05T13:29:11.686Z,248.9505
2023-02-05T13:34:13.379Z,247.44828
2023-02-05T13:39:15.104Z,237.33333
2023-02-05T13:44:16.776Z,238.73684
2023-02-05T13:49:18.410Z,240.15385
2023-02-05T13:54:20.057Z,233.20188
2023-02-05T13:59:23.675Z,247.44828
2023-02-05T14:04:25.735Z,250.46766
2023-02-05T14:09:27.422Z,263.17098
2023-02-05T14:14:29.175Z,261.52577
2023-02-05T14:19:30.781Z,248.9505
2023-02-05T14:24:32.395Z,255.11111
2023-02-05T14:29:34.071Z,259.89744
2023-02-05T14:34:35.735Z,268.21053
2023-02-05T14:39:37.371Z,268.21053
2023-02-05T14:44:39.094Z,259.89744
2023-02-05T14:49:40.722Z,264.83333
2023-02-05T14:54:42.302Z,268.21053
2023-02-05T14:59:44.051Z,273.41176
2023-02-05T15:04:45.739Z,276.97297
2023-02-05T15:09:47.347Z,259.89744
2023-02-05T15:14:49.063Z,269.92593
2023-02-05T15:19:50.734Z,268.21053
2023-02-05T15:24:52.356Z,266.51309
2023-02-05T15:29:56.360Z,263.17098
2023-02-05T15:34:59.031Z,256.69036
2023-02-05T15:40:00.656Z,256.69036
2023-02-05T15:45:02.436Z,248.9505
2023-02-05T15:50:04.075Z,264.83333
2023-02-05T15:55:05.712Z,252
2023-02-05T16:00:07.419Z,248.9505
2023-02-05T16:05:09.208Z,245.96078
2023-02-05T16:10:10.856Z,244.4878
2023-02-05T16:15:12.686Z,241.58454
2023-02-05T16:20:14.314Z,243.02913
2023-02-05T16:25:15.930Z,238.73684
2023-02-05T16:30:17.708Z,241.58454
2023-02-05T16:35:19.306Z,243.02913
2023-02-05T16:40:20.898Z,237.33333
2023-02-05T16:45:22.681Z,235.94313
2023-02-05T16:50:24.307Z,238.73684
2023-02-05T16:55:25.906Z,241.58454
2023-02-05T17:00:27.618Z,245.96078
2023-02-05T17:05:29.254Z,248.9505
2023-02-05T17:10:30.925Z,244.4878
2023-02-05T17:15:32.677Z,250.46766
2023-02-05T17:20:34.744Z,252
2023-02-05T17:25:36.575Z,248.9505
2023-02-05T17:30:38.503Z,247.44828
2023-02-05T17:35:40.289Z,247.44828
2023-02-05T17:40:41.874Z,247.44828
2023-02-05T17:45:43.595Z,252
2023-02-05T17:50:45.208Z,261.52577
2023-02-05T17:55:46.836Z,266.51309
2023-02-05T18:00:48.672Z,275.1828
2023-02-05T18:05:50.317Z,261.52577
2023-02-05T18:10:51.944Z,268.21053
2023-02-05T18:15:53.670Z,268.21053
2023-02-05T18:20:55.470Z,268.21053
2023-02-05T18:25:57.400Z,268.21053
2023-02-05T18:30:59.172Z,266.51309
2023-02-05T18:36:00.845Z,273.41176
2023-02-05T18:41:02.613Z,275.1828
2023-02-05T18:46:04.339Z,280.61202
2023-02-05T18:51:05.969Z,276.97297
2023-02-05T18:56:08.020Z,282.46154
2023-02-05T19:01:10.847Z,288.13408
2023-02-05T19:06:12.748Z,290.06742
2023-02-05T19:11:14.418Z,278.78261
2023-02-05T19:16:16.175Z,275.1828
2023-02-05T19:21:17.782Z,286.22222
2023-02-05T19:26:19.421Z,286.22222
2023-02-05T19:31:21.377Z,288.13408
2023-02-05T19:36:23.122Z,284.33149
2023-02-05T19:41:24.762Z,286.22222
2023-02-05T19:46:26.894Z,294
2023-02-05T19:51:28.693Z,292.0226
2023-02-05T19:56:30.292Z,292.0226
2023-02-05T20:01:32.172Z,300.06936
2023-02-05T20:06:34.010Z,319.60976
2023-02-05T20:11:35.617Z,304.23392
2023-02-05T20:16:37.309Z,317.33333
2023-02-05T20:21:38.940Z,306.35294
2023-02-05T20:26:40.672Z,304.23392
2023-02-05T20:31:42.377Z,304.23392
2023-02-05T20:36:44.001Z,315.08434
2023-02-05T20:41:45.814Z,308.49704
2023-02-05T20:46:47.671Z,308.49704
2023-02-05T20:51:49.263Z,319.60976
2023-02-05T20:56:50.888Z,0
2023-02-05T21:01:52.809Z,0
2023-02-05T21:06:54.783Z,312.86228
2023-02-05T21:11:56.562Z,304.23392
2023-02-05T21:16:58.366Z,302.13953
2023-02-05T21:21:59.973Z,306.35294
2023-02-05T21:27:01.992Z,304.23392
2023-02-05T21:32:03.923Z,310.66667
2023-02-05T21:37:05.567Z,312.86228
2023-02-05T21:42:07.222Z,302.13953
2023-02-05T21:47:08.911Z,296
2023-02-05T21:52:10.579Z,282.46154
2023-02-05T21:57:12.447Z,276.97297
2023-02-05T22:02:14.204Z,271.65957
2023-02-05T22:07:15.845Z,253.54774
2023-02-05T22:12:17.592Z,256.69036
2023-02-05T22:17:19.299Z,266.51309
2023-02-05T22:22:20.982Z,271.65957
2023-02-05T22:27:22.562Z,288.13408
2023-02-05T22:32:24.297Z,282.46154
2023-02-05T22:37:25.889Z,280.61202
2023-02-05T22:42:27.519Z,280.61202
2023-02-05T22:47:29.404Z,276.97297
2023-02-05T22:52:31.097Z,282.46154
2023-02-05T22:57:32.744Z,292.0226
2023-02-05T23:02:34.447Z,273.41176
2023-02-05T23:07:36.157Z,280.61202
2023-02-05T23:12:37.778Z,278.78261
2023-02-05T23:17:39.438Z,263.17098
2023-02-05T23:22:41.075Z,268.21053
2023-02-05T23:27:42.812Z,273.41176
2023-02-05T23:32:44.560Z,286.22222
2023-02-05T23:37:46.234Z,286.22222
2023-02-05T23:42:47.863Z,282.46154
2023-02-05T23:47:49.692Z,258.28571
2023-02-05T23:52:51.332Z,250.46766
2023-02-05T23:57:52.981Z,261.52577
